Time;durP1;ratioP1;P1;durP2;ratioP2;P2;SDS_P1;SDS_P2;PMS_P1;PMS_P2;Temp;Humidity;BMP_temperature;BMP_pressure;BME280_temperature;BME280_humidity;BME280_pressure;Samples;Min_cycle;Max_cycle;Signal;HPM_P1;HPM_P2
2021/06/10 00:03:25;;;;;;;;;16.67;16.67;;;;;;;;8825698;40;10005;-60
2021/06/10 00:09:28;;;;;;;;;21.00;17.00;;;;;;;;8829010;40;10099;-59
2021/06/10 00:15:32;;;;;;;;;15.00;15.00;;;;;;;;8830337;40;10064;-60
2021/06/10 00:21:34;;;;;;;;;16.33;15.00;;;;;;;;8829484;40;10051;-59
2021/06/10 00:27:38;;;;;;;;;17.67;16.67;;;;;;;;8828648;40;10131;-59
2021/06/10 00:33:40;;;;;;;;;14.33;14.00;;;;;;;;8829114;40;9982;-59
2021/06/10 00:39:42;;;;;;;;;19.00;19.00;;;;;;;;8827441;40;10031;-59
2021/06/10 00:45:44;;;;;;;;;20.33;18.00;;;;;;;;8818615;40;10086;-60
2021/06/10 00:51:45;;;;;;;;;14.67;14.67;;;;;;;;8830454;40;10565;-59
2021/06/10 00:57:47;;;;;;;;;16.00;16.00;;;;;;;;8827846;40;10033;-58
2021/06/10 01:03:50;;;;;;;;;17.33;16.00;;;;;;;;8828613;40;9991;-59
2021/06/10 01:10:02;;;;;;;;;21.00;16.33;;;;;;;;8828724;40;10114;-58
2021/06/10 01:16:07;;;;;;;;;17.00;17.00;;;;;;;;8827604;40;10039;-58
2021/06/10 01:22:24;;;;;;;;;14.00;14.00;;;;;;;;8829117;40;10072;-59
2021/06/10 01:28:30;;;;;;;;;17.33;16.33;;;;;;;;8818725;40;10098;-58
2021/06/10 01:34:33;;;;;;;;;21.33;18.67;;;;;;;;8829827;40;10070;-61
2021/06/10 01:40:37;;;;;;;;;19.00;18.33;;;;;;;;8827294;40;10069;-58
2021/06/10 01:46:40;;;;;;;;;21.67;20.00;;;;;;;;8827079;40;10028;-58
2021/06/10 01:52:44;;;;;;;;;15.33;14.33;;;;;;;;8828116;40;10054;-58
2021/06/10 01:58:47;;;;;;;;;16.00;16.00;;;;;;;;8827569;40;10062;-59
2021/06/10 02:04:50;;;;;;;;;24.67;20.33;;;;;;;;8828549;40;9984;-57
2021/06/10 02:10:55;;;;;;;;;19.67;19.00;;;;;;;;8827004;40;10065;-59
2021/06/10 02:16:58;;;;;;;;;23.00;21.00;;;;;;;;8826850;40;10055;-57
2021/06/10 02:23:01;;;;;;;;;24.67;22.33;;;;;;;;8827976;40;10145;-59
2021/06/10 02:29:04;;;;;;;;;20.00;19.67;;;;;;;;8826206;40;10058;-59
2021/06/10 02:35:09;;;;;;;;;19.67;18.67;;;;;;;;8827300;40;10047;-59
2021/06/10 02:41:13;;;;;;;;;16.67;16.67;;;;;;;;8828859;40;10623;-59
2021/06/10 02:47:17;;;;;;;;;22.00;22.00;;;;;;;;8828347;40;10283;-58
2021/06/10 02:53:20;;;;;;;;;21.00;20.67;;;;;;;;8826803;40;10014;-59
2021/06/10 02:59:24;;;;;;;;;21.67;19.33;;;;;;;;8827125;40;10079;-58
2021/06/10 03:05:29;;;;;;;;;20.33;20.33;;;;;;;;8827603;40;10043;-59
2021/06/10 03:11:32;;;;;;;;;20.67;20.67;;;;;;;;8826042;40;10551;-58
2021/06/10 03:17:35;;;;;;;;;28.67;24.00;;;;;;;;8826896;40;10067;-59
2021/06/10 03:23:40;;;;;;;;;20.33;19.00;;;;;;;;8826401;40;10074;-58
2021/06/10 03:29:42;;;;;;;;;21.33;19.00;;;;;;;;8825946;40;10044;-59
2021/06/10 03:35:45;;;;;;;;;19.67;19.33;;;;;;;;8826778;40;10316;-59
2021/06/10 03:41:48;;;;;;;;;21.00;19.00;;;;;;;;8827711;40;10101;-59
2021/06/10 03:47:50;;;;;;;;;19.00;18.67;;;;;;;;8830309;40;10030;-59
2021/06/10 03:53:54;;;;;;;;;19.00;18.00;;;;;;;;8829667;40;10129;-59
2021/06/10 03:59:57;;;;;;;;;17.33;17.33;;;;;;;;8829618;40;10078;-59
2021/06/10 04:06:00;;;;;;;;;26.33;20.67;;;;;;;;9869243;23;10148;-59
2021/06/10 04:12:03;;;;;;;;;19.67;19.00;;;;;;;;8799750;40;10104;-59
2021/06/10 04:18:05;;;;;;;;;19.67;19.67;;;;;;;;8802922;40;10120;-60
2021/06/10 04:24:07;;;;;;;;;19.33;19.00;;;;;;;;8783916;40;10031;-59
2021/06/10 04:30:11;;;;;;;;;21.67;19.33;;;;;;;;8780070;40;10131;-60
2021/06/10 04:36:15;;;;;;;;;21.00;19.33;;;;;;;;8794289;40;10038;-60
2021/06/10 04:42:17;;;;;;;;;21.67;21.33;;;;;;;;8804102;40;10095;-62
2021/06/10 04:48:18;;;;;;;;;23.67;22.33;;;;;;;;8803973;40;10679;-60
2021/06/10 04:54:20;;;;;;;;;20.67;17.00;;;;;;;;8803898;40;10616;-61
2021/06/10 05:00:23;;;;;;;;;16.25;15.50;;;;;;;;8803998;40;11468;-60
2021/06/10 05:06:25;;;;;;;;;18.33;17.67;;;;;;;;8792561;40;11167;-60
2021/06/10 05:12:28;;;;;;;;;18.50;18.00;;;;;;;;8797133;40;10838;-59
2021/06/10 05:18:30;;;;;;;;;19.00;17.25;;;;;;;;8777396;40;10868;-62
2021/06/10 05:24:32;;;;;;;;;18.25;14.00;;;;;;;;8779103;40;10943;-60
2021/06/10 05:30:34;;;;;;;;;17.75;17.75;;;;;;;;8777841;40;10675;-59
2021/06/10 05:36:36;;;;;;;;;18.00;18.00;;;;;;;;8777932;40;10757;-60
2021/06/10 05:42:38;;;;;;;;;21.25;20.25;;;;;;;;8777536;40;10811;-60
2021/06/10 05:48:40;;;;;;;;;14.00;14.00;;;;;;;;8787306;40;10709;-61
2021/06/10 05:54:42;;;;;;;;;15.75;13.75;;;;;;;;8795356;40;10597;-61
2021/06/10 06:00:44;;;;;;;;;13.00;11.25;;;;;;;;8796731;40;10674;-60
2021/06/10 06:06:47;;;;;;;;;15.50;14.75;;;;;;;;8791743;40;11356;-61
2021/06/10 06:12:52;;;;;;;;;16.25;16.25;;;;;;;;8785634;40;10631;-60
2021/06/10 06:18:54;;;;;;;;;17.75;17.75;;;;;;;;8781886;40;11851;-61
2021/06/10 06:24:55;;;;;;;;;17.00;15.25;;;;;;;;8792611;40;10475;-60
2021/06/10 06:30:57;;;;;;;;;21.25;21.25;;;;;;;;8793723;40;11084;-61
2021/06/10 06:36:59;;;;;;;;;12.25;10.75;;;;;;;;8789727;40;10805;-61
2021/06/10 06:43:02;;;;;;;;;21.50;19.50;;;;;;;;8788427;40;10558;-60
2021/06/10 06:49:04;;;;;;;;;17.50;12.25;;;;;;;;8787357;40;10595;-64
2021/06/10 06:55:07;;;;;;;;;15.50;15.25;;;;;;;;8777049;40;10755;-60
2021/06/10 07:01:10;;;;;;;;;12.75;12.75;;;;;;;;8772178;40;11125;-61
2021/06/10 07:07:11;;;;;;;;;16.25;15.00;;;;;;;;8776292;40;10582;-61
2021/06/10 07:13:13;;;;;;;;;15.00;13.25;;;;;;;;8785518;40;10658;-61
2021/06/10 07:19:16;;;;;;;;;16.00;15.50;;;;;;;;8790122;40;10751;-61
2021/06/10 07:25:19;;;;;;;;;14.00;14.00;;;;;;;;8787604;40;10566;-62
2021/06/10 07:31:21;;;;;;;;;13.75;13.75;;;;;;;;8788599;40;10569;-61
2021/06/10 07:37:23;;;;;;;;;10.00;10.00;;;;;;;;8782827;40;10667;-60
2021/06/10 07:43:25;;;;;;;;;11.25;11.25;;;;;;;;8787067;40;10531;-60
2021/06/10 07:49:29;;;;;;;;;11.00;10.50;;;;;;;;8780900;40;10578;-63
2021/06/10 07:55:31;;;;;;;;;15.25;13.50;;;;;;;;8780660;40;10603;-61
2021/06/10 08:01:33;;;;;;;;;11.00;11.00;;;;;;;;8777684;40;10544;-62
2021/06/10 08:07:36;;;;;;;;;9.75;9.75;;;;;;;;8787419;40;10546;-61
2021/06/10 08:13:38;;;;;;;;;15.75;15.75;;;;;;;;8787671;40;10547;-61
2021/06/10 08:19:40;;;;;;;;;15.50;15.50;;;;;;;;8788341;40;10559;-61
2021/06/10 08:25:43;;;;;;;;;13.00;13.00;;;;;;;;8779255;40;11177;-61
2021/06/10 08:31:46;;;;;;;;;14.00;13.00;;;;;;;;8791450;40;10656;-60
2021/06/10 08:37:52;;;;;;;;;14.00;14.00;;;;;;;;8787538;40;10592;-61
2021/06/10 08:43:58;;;;;;;;;17.50;17.50;;;;;;;;8782945;40;10740;-62
2021/06/10 08:50:01;;;;;;;;;15.00;15.00;;;;;;;;8788281;40;11143;-62
2021/06/10 08:56:04;;;;;;;;;16.75;15.00;;;;;;;;8788827;40;10555;-61
2021/06/10 09:02:08;;;;;;;;;14.50;13.75;;;;;;;;8791982;40;10482;-61
2021/06/10 09:08:11;;;;;;;;;14.00;14.00;;;;;;;;8788870;40;10505;-61
2021/06/10 09:14:13;;;;;;;;;14.50;11.00;;;;;;;;8787354;40;11267;-61
2021/06/10 09:20:18;;;;;;;;;13.25;12.00;;;;;;;;8784613;40;11260;-62
2021/06/10 09:26:21;;;;;;;;;15.50;15.50;;;;;;;;8776778;40;10592;-62
2021/06/10 09:32:26;;;;;;;;;18.00;16.25;;;;;;;;8782233;40;10567;-61
2021/06/10 09:38:28;;;;;;;;;16.75;14.25;;;;;;;;8790255;40;10603;-62
2021/06/10 09:44:44;;;;;;;;;12.00;11.25;;;;;;;;8788658;40;10565;-61
2021/06/10 09:50:47;;;;;;;;;14.50;13.75;;;;;;;;8785505;40;10804;-62
2021/06/10 09:57:02;;;;;;;;;18.00;16.75;;;;;;;;8790318;40;10631;-63
2021/06/10 10:03:04;;;;;;;;;12.75;12.75;;;;;;;;8794881;40;10475;-64
2021/06/10 10:09:08;;;;;;;;;13.25;13.00;;;;;;;;8791519;40;10430;-63
2021/06/10 10:15:12;;;;;;;;;17.00;13.50;;;;;;;;8785240;40;10507;-62
2021/06/10 10:21:14;;;;;;;;;13.50;13.50;;;;;;;;8794748;40;10535;-63
2021/06/10 10:27:16;;;;;;;;;14.25;14.25;;;;;;;;8781126;40;10581;-63
2021/06/10 10:33:21;;;;;;;;;15.50;15.50;;;;;;;;8793291;40;10604;-62
2021/06/10 10:39:33;;;;;;;;;15.75;12.75;;;;;;;;8792874;40;10576;-64
2021/06/10 10:45:35;;;;;;;;;11.00;11.00;;;;;;;;8794645;40;10480;-61
2021/06/10 10:51:37;;;;;;;;;26.75;24.00;;;;;;;;8789292;40;10588;-63
2021/06/10 10:57:41;;;;;;;;;25.25;24.25;;;;;;;;8777224;40;10662;-64
2021/06/10 11:03:44;;;;;;;;;24.50;23.75;;;;;;;;8793411;40;10596;-62
2021/06/10 11:09:46;;;;;;;;;65.33;55.67;;;;;;;;8785442;40;10854;-62
2021/06/10 11:15:53;;;;;;;;;16.75;16.00;;;;;;;;8789617;40;10707;-61
2021/06/10 11:21:55;;;;;;;;;38.75;36.00;;;;;;;;8795644;40;10567;-62
2021/06/10 11:28:08;;;;;;;;;21.00;20.50;;;;;;;;8788592;40;10621;-64
2021/06/10 11:34:30;;;;;;;;;17.00;17.00;;;;;;;;8788616;40;10749;-62
2021/06/10 11:40:33;;;;;;;;;18.75;18.75;;;;;;;;8790874;40;11119;-63
2021/06/10 11:46:40;;;;;;;;;15.50;12.25;;;;;;;;8792524;40;11361;-63
2021/06/10 11:52:49;;;;;;;;;15.75;14.00;;;;;;;;8792422;40;10536;-64
2021/06/10 11:58:53;;;;;;;;;14.25;11.25;;;;;;;;8782575;40;10525;-62
2021/06/10 12:05:08;;;;;;;;;18.25;15.25;;;;;;;;8777946;40;10561;-64
2021/06/10 12:11:11;;;;;;;;;14.25;14.25;;;;;;;;8774263;40;10506;-64
2021/06/10 12:17:13;;;;;;;;;17.25;13.75;;;;;;;;8788293;40;11302;-62
2021/06/10 12:23:18;;;;;;;;;17.00;16.50;;;;;;;;8792135;40;10465;-62
2021/06/10 12:29:20;;;;;;;;;22.00;19.50;;;;;;;;8799451;40;10591;-63
2021/06/10 12:35:22;;;;;;;;;18.75;17.50;;;;;;;;8781203;40;10870;-62
2021/06/10 12:41:28;;;;;;;;;15.50;12.50;;;;;;;;8794893;40;10511;-63
2021/06/10 12:47:35;;;;;;;;;16.75;15.00;;;;;;;;8802292;40;10533;-64
2021/06/10 12:53:50;;;;;;;;;17.50;16.75;;;;;;;;8794746;40;10604;-64
2021/06/10 12:59:53;;;;;;;;;18.50;18.50;;;;;;;;8786649;40;10616;-63
2021/06/10 13:06:06;;;;;;;;;20.50;19.00;;;;;;;;8775267;40;10474;-64
2021/06/10 13:12:14;;;;;;;;;12.75;12.50;;;;;;;;8778674;40;10530;-63
2021/06/10 13:18:16;;;;;;;;;15.75;13.00;;;;;;;;8799313;40;10588;-63
2021/06/10 13:24:18;;;;;;;;;14.00;12.75;;;;;;;;8793088;40;10647;-63
2021/06/10 13:30:20;;;;;;;;;6.50;6.50;;;;;;;;8797672;40;10507;-62
2021/06/10 13:36:29;;;;;;;;;9.75;9.25;;;;;;;;8800687;40;10820;-63
2021/06/10 13:42:33;;;;;;;;;10.75;9.25;;;;;;;;8786511;40;10598;-62
2021/06/10 13:48:35;;;;;;;;;8.25;8.25;;;;;;;;8774326;40;11216;-63
2021/06/10 13:54:38;;;;;;;;;9.50;9.50;;;;;;;;8773521;40;10642;-62
2021/06/10 14:00:40;;;;;;;;;9.25;9.25;;;;;;;;8773991;40;10660;-62
2021/06/10 14:06:42;;;;;;;;;6.25;6.00;;;;;;;;8775426;40;10721;-61
2021/06/10 14:12:44;;;;;;;;;11.25;11.25;;;;;;;;8782340;40;10635;-62
2021/06/10 14:18:47;;;;;;;;;7.75;7.00;;;;;;;;8786738;40;10631;-62
2021/06/10 14:24:49;;;;;;;;;6.00;6.00;;;;;;;;8777864;40;10456;-63
2021/06/10 14:31:02;;;;;;;;;6.50;6.50;;;;;;;;8787679;40;10409;-62
2021/06/10 14:37:04;;;;;;;;;11.00;11.00;;;;;;;;8801444;40;10633;-62
2021/06/10 14:43:06;;;;;;;;;11.25;11.25;;;;;;;;8800917;40;10548;-63
2021/06/10 14:49:08;;;;;;;;;10.25;7.75;;;;;;;;8800531;40;10736;-63
2021/06/10 14:55:10;;;;;;;;;7.75;7.25;;;;;;;;8800088;40;10840;-61
2021/06/10 15:01:12;;;;;;;;;9.25;8.00;;;;;;;;8801198;40;10993;-60
2021/06/10 15:07:14;;;;;;;;;6.00;6.00;;;;;;;;8801698;40;10627;-64
2021/06/10 15:13:16;;;;;;;;;6.25;6.25;;;;;;;;8797997;40;10458;-61
2021/06/10 15:19:18;;;;;;;;;5.00;5.00;;;;;;;;8800618;40;10651;-63
2021/06/10 15:25:20;;;;;;;;;9.75;9.75;;;;;;;;8800544;40;10703;-62
2021/06/10 15:31:23;;;;;;;;;10.50;7.00;;;;;;;;8799302;40;10643;-62
2021/06/10 15:37:25;;;;;;;;;11.00;9.50;;;;;;;;8773349;40;10683;-63
2021/06/10 15:43:27;;;;;;;;;10.00;10.00;;;;;;;;8775223;40;11274;-61
2021/06/10 15:49:32;;;;;;;;;9.50;7.75;;;;;;;;8775340;40;10775;-62
2021/06/10 15:55:33;;;;;;;;;9.00;9.00;;;;;;;;8779533;40;10816;-62
2021/06/10 16:01:35;;;;;;;;;10.75;9.25;;;;;;;;8798690;40;11013;-61
2021/06/10 16:07:38;;;;;;;;;10.00;9.25;;;;;;;;8799439;40;11049;-62
2021/06/10 16:13:40;;;;;;;;;9.50;8.25;;;;;;;;8799485;40;11458;-61
2021/06/10 16:19:42;;;;;;;;;12.25;11.00;;;;;;;;8799638;40;11070;-62
2021/06/10 16:25:44;;;;;;;;;9.33;9.33;;;;;;;;8799506;40;9937;-61
2021/06/10 16:31:47;;;;;;;;;7.00;7.00;;;;;;;;8798972;40;10655;-62
2021/06/10 16:37:52;;;;;;;;;11.00;9.33;;;;;;;;8798999;40;10121;-62
2021/06/10 16:43:55;;;;;;;;;9.00;8.25;;;;;;;;8789838;40;10903;-61
2021/06/10 16:50:00;;;;;;;;;11.25;10.75;;;;;;;;8776807;40;10879;-62
2021/06/10 16:56:02;;;;;;;;;12.75;9.00;;;;;;;;8652988;40;5002192;-61
2021/06/10 17:02:11;;;;;;;;;11.00;10.00;;;;;;;;8777858;40;10963;-60
2021/06/10 17:08:13;;;;;;;;;12.00;9.00;;;;;;;;8783745;40;10914;-61
2021/06/10 17:14:17;;;;;;;;;9.33;9.00;;;;;;;;8802834;40;11193;-61
2021/06/10 17:20:21;;;;;;;;;10.00;10.00;;;;;;;;8801937;40;10550;-62
2021/06/10 17:26:23;;;;;;;;;18.67;17.00;;;;;;;;8791499;40;10305;-62
2021/06/10 17:32:25;;;;;;;;;8.33;7.67;;;;;;;;8776080;40;10678;-61
2021/06/10 17:38:27;;;;;;;;;12.67;11.00;;;;;;;;8780667;40;10660;-60
2021/06/10 17:44:29;;;;;;;;;10.67;10.67;;;;;;;;8794404;40;10717;-61
2021/06/10 17:50:31;;;;;;;;;15.50;15.00;;;;;;;;8788511;40;10911;-60
2021/06/10 17:56:33;;;;;;;;;13.67;13.67;;;;;;;;8800844;40;11174;-61
2021/06/10 18:02:37;;;;;;;;;16.33;11.00;;;;;;;;8800365;40;10663;-59
2021/06/10 18:08:40;;;;;;;;;18.00;16.67;;;;;;;;8802019;40;10651;-60
2021/06/10 18:14:42;;;;;;;;;18.50;16.50;;;;;;;;8807494;40;10394;-61
2021/06/10 18:20:44;;;;;;;;;17.33;16.00;;;;;;;;8800577;40;10574;-61
2021/06/10 18:26:46;;;;;;;;;16.67;15.00;;;;;;;;8801474;40;10090;-60
2021/06/10 18:32:48;;;;;;;;;33.67;27.67;;;;;;;;8801996;40;10091;-60
2021/06/10 18:38:50;;;;;;;;;38.00;34.00;;;;;;;;8799979;40;10100;-60
2021/06/10 18:44:52;;;;;;;;;25.33;24.00;;;;;;;;8801379;40;10100;-62
2021/06/10 18:50:54;;;;;;;;;27.00;23.00;;;;;;;;8798985;40;10096;-60
2021/06/10 18:56:56;;;;;;;;;23.00;18.33;;;;;;;;8800127;40;10149;-60
2021/06/10 19:02:59;;;;;;;;;15.33;15.33;;;;;;;;8807828;40;10606;-60
2021/06/10 19:09:04;;;;;;;;;10.00;10.00;;;;;;;;8797399;40;9935;-62
2021/06/10 19:15:07;;;;;;;;;30.00;30.00;;;;;;;;8799731;40;10084;-60
2021/06/10 19:21:10;;;;;;;;;16.67;15.00;;;;;;;;8799870;40;10036;-59
2021/06/10 19:27:13;;;;;;;;;19.67;16.00;;;;;;;;8794381;40;10080;-60
2021/06/10 19:33:29;;;;;;;;;18.50;16.50;;;;;;;;8592893;40;20002891;-60
2021/06/10 19:39:31;;;;;;;;;14.33;13.33;;;;;;;;8818784;40;9950;-62
2021/06/10 19:45:33;;;;;;;;;17.33;15.67;;;;;;;;8805609;40;9968;-59
2021/06/10 19:51:35;;;;;;;;;21.33;19.33;;;;;;;;8799881;40;9969;-60
2021/06/10 19:57:38;;;;;;;;;12.67;10.67;;;;;;;;8799002;40;9941;-60
2021/06/10 20:03:40;;;;;;;;;16.33;15.33;;;;;;;;8799746;40;9967;-60
2021/06/10 20:09:42;;;;;;;;;12.33;12.33;;;;;;;;8798958;40;10003;-60
2021/06/10 20:15:44;;;;;;;;;12.67;11.67;;;;;;;;8799035;40;10333;-61
2021/06/10 20:21:46;;;;;;;;;17.33;12.00;;;;;;;;8799903;40;9945;-60
2021/06/10 20:34:13;;;;;;;;;23.67;21.33;;;;;;;;8826959;40;10184;-61
2021/06/10 20:40:17;;;;;;;;;18.33;17.33;;;;;;;;8827110;40;9911;-60
2021/06/10 20:46:21;;;;;;;;;17.33;16.00;;;;;;;;8827494;40;9926;-60
2021/06/10 20:52:23;;;;;;;;;19.33;19.00;;;;;;;;8825043;40;10006;-60
2021/06/10 20:58:25;;;;;;;;;20.33;19.33;;;;;;;;8826438;40;10005;-60
2021/06/10 21:04:27;;;;;;;;;19.67;19.33;;;;;;;;8802399;40;10349;-59
2021/06/10 21:10:29;;;;;;;;;19.00;16.67;;;;;;;;8802304;40;9895;-60
2021/06/10 21:16:31;;;;;;;;;22.00;20.00;;;;;;;;8803433;40;10062;-60
2021/06/10 21:22:33;;;;;;;;;15.33;14.67;;;;;;;;8801304;40;10188;-59
2021/06/10 21:28:35;;;;;;;;;13.00;13.00;;;;;;;;8801228;40;9932;-61
2021/06/10 21:34:37;;;;;;;;;20.33;19.33;;;;;;;;8802399;40;9963;-61
2021/06/10 21:40:39;;;;;;;;;17.33;16.33;;;;;;;;8801241;40;9922;-61
2021/06/10 21:46:43;;;;;;;;;22.67;19.00;;;;;;;;8802954;40;9870;-60
2021/06/10 21:52:45;;;;;;;;;15.00;15.00;;;;;;;;8802378;40;10348;-60
2021/06/10 21:58:47;;;;;;;;;13.33;13.33;;;;;;;;8800310;40;10113;-59
2021/06/10 22:04:49;;;;;;;;;21.00;16.00;;;;;;;;8800968;40;9960;-59
2021/06/10 22:10:51;;;;;;;;;22.33;17.67;;;;;;;;8311544;40;20001665;-58
2021/06/10 22:16:54;;;;;;;;;18.33;18.33;;;;;;;;8800990;40;9928;-59
2021/06/10 22:22:56;;;;;;;;;18.00;14.67;;;;;;;;8801994;40;10869;-59
2021/06/10 22:28:58;;;;;;;;;25.33;17.33;;;;;;;;8800586;40;9983;-59
2021/06/10 22:35:02;;;;;;;;;14.33;13.33;;;;;;;;8801322;40;10568;-59
2021/06/10 22:41:05;;;;;;;;;20.00;16.00;;;;;;;;8800432;40;9956;-60
2021/06/10 22:47:07;;;;;;;;;15.33;14.33;;;;;;;;8801135;40;9968;-60
2021/06/10 22:53:09;;;;;;;;;13.00;13.00;;;;;;;;8802898;40;10108;-59
2021/06/10 22:59:11;;;;;;;;;18.67;16.33;;;;;;;;8808529;40;9953;-59
2021/06/10 23:05:13;;;;;;;;;19.33;19.33;;;;;;;;8824295;40;9939;-59
2021/06/10 23:11:16;;;;;;;;;14.67;14.00;;;;;;;;8801674;40;9892;-59
2021/06/10 23:17:18;;;;;;;;;15.67;15.67;;;;;;;;8801662;40;10433;-58
2021/06/10 23:23:20;;;;;;;;;17.33;17.33;;;;;;;;8799841;40;9934;-59
2021/06/10 23:29:22;;;;;;;;;19.00;19.00;;;;;;;;7792735;40;10001583;-59
2021/06/10 23:35:24;;;;;;;;;19.00;19.00;;;;;;;;8800626;40;9986;-60
2021/06/10 23:41:27;;;;;;;;;15.67;15.67;;;;;;;;8800356;40;10130;-58
2021/06/10 23:47:30;;;;;;;;;19.00;16.33;;;;;;;;8800213;40;10391;-59
2021/06/10 23:53:32;;;;;;;;;23.33;21.00;;;;;;;;8799475;40;9870;-58
2021/06/10 23:59:34;;;;;;;;;30.00;26.67;;;;;;;;8802649;40;10205;-60
